sensor_id;sensor_type;location;lat;lon;timestamp;P1;durP1;ratioP1;P2;durP2;ratioP2
78664;SDS011;67981;51.022;-2.870;2023-03-19T00:02:20;5.43;;;1.65;;
78664;SDS011;67981;51.022;-2.870;2023-03-19T00:04:46;2.80;;;1.42;;
78664;SDS011;67981;51.022;-2.870;2023-03-19T00:07:12;4.72;;;1.55;;
78664;SDS011;67981;51.022;-2.870;2023-03-19T00:09:38;5.32;;;1.70;;
78664;SDS011;67981;51.022;-2.870;2023-03-19T00:12:04;4.82;;;1.67;;
78664;SDS011;67981;51.022;-2.870;2023-03-19T00:14:29;7.30;;;1.83;;
78664;SDS011;67981;51.022;-2.870;2023-03-19T00:16:55;4.30;;;1.83;;
78664;SDS011;67981;51.022;-2.870;2023-03-19T00:19:20;5.50;;;3.15;;
78664;SDS011;67981;51.022;-2.870;2023-03-19T00:21:46;2.95;;;1.60;;
78664;SDS011;67981;51.022;-2.870;2023-03-19T00:24:11;7.47;;;2.25;;
78664;SDS011;67981;51.022;-2.870;2023-03-19T00:26:37;4.78;;;2.28;;
78664;SDS011;67981;51.022;-2.870;2023-03-19T00:29:02;6.43;;;2.28;;
78664;SDS011;67981;51.022;-2.870;2023-03-19T00:31:28;7.57;;;2.22;;
78664;SDS011;67981;51.022;-2.870;2023-03-19T00:33:57;6.43;;;1.70;;
78664;SDS011;67981;51.022;-2.870;2023-03-19T00:36:24;9.88;;;3.13;;
78664;SDS011;67981;51.022;-2.870;2023-03-19T00:38:51;8.27;;;2.03;;
78664;SDS011;67981;51.022;-2.870;2023-03-19T00:41:16;4.47;;;2.30;;
78664;SDS011;67981;51.022;-2.870;2023-03-19T00:43:43;4.43;;;2.45;;
78664;SDS011;67981;51.022;-2.870;2023-03-19T00:46:08;6.30;;;1.92;;
78664;SDS011;67981;51.022;-2.870;2023-03-19T00:48:34;4.55;;;2.03;;
78664;SDS011;67981;51.022;-2.870;2023-03-19T00:51:06;5.03;;;1.92;;
78664;SDS011;67981;51.022;-2.870;2023-03-19T00:53:37;6.50;;;1.90;;
78664;SDS011;67981;51.022;-2.870;2023-03-19T00:56:03;4.47;;;2.20;;
78664;SDS011;67981;51.022;-2.870;2023-03-19T00:58:29;7.30;;;1.92;;
78664;SDS011;67981;51.022;-2.870;2023-03-19T01:00:54;8.48;;;2.80;;
78664;SDS011;67981;51.022;-2.870;2023-03-19T01:03:20;7.63;;;2.08;;
78664;SDS011;67981;51.022;-2.870;2023-03-19T01:05:48;11.57;;;1.70;;
78664;SDS011;67981;51.022;-2.870;2023-03-19T01:08:15;3.72;;;1.40;;
78664;SDS011;67981;51.022;-2.870;2023-03-19T01:10:42;6.10;;;2.40;;
78664;SDS011;67981;51.022;-2.870;2023-03-19T01:13:08;7.15;;;2.03;;
78664;SDS011;67981;51.022;-2.870;2023-03-19T01:15:38;5.50;;;2.05;;
78664;SDS011;67981;51.022;-2.870;2023-03-19T01:18:05;8.10;;;2.20;;
78664;SDS011;67981;51.022;-2.870;2023-03-19T01:20:32;13.73;;;3.35;;
78664;SDS011;67981;51.022;-2.870;2023-03-19T01:22:58;12.23;;;3.45;;
78664;SDS011;67981;51.022;-2.870;2023-03-19T01:25:23;7.30;;;2.45;;
78664;SDS011;67981;51.022;-2.870;2023-03-19T01:27:49;4.63;;;1.85;;
78664;SDS011;67981;51.022;-2.870;2023-03-19T01:30:15;5.32;;;2.47;;
78664;SDS011;67981;51.022;-2.870;2023-03-19T01:32:40;4.28;;;1.73;;
78664;SDS011;67981;51.022;-2.870;2023-03-19T01:35:06;6.57;;;3.13;;
78664;SDS011;67981;51.022;-2.870;2023-03-19T01:37:32;12.00;;;2.30;;
78664;SDS011;67981;51.022;-2.870;2023-03-19T01:39:57;10.48;;;2.58;;
78664;SDS011;67981;51.022;-2.870;2023-03-19T01:42:23;10.25;;;2.22;;
78664;SDS011;67981;51.022;-2.870;2023-03-19T01:44:48;10.13;;;2.45;;
78664;SDS011;67981;51.022;-2.870;2023-03-19T01:49:46;11.20;;;2.25;;
78664;SDS011;67981;51.022;-2.870;2023-03-19T01:52:15;9.82;;;2.28;;
78664;SDS011;67981;51.022;-2.870;2023-03-19T01:54:41;6.88;;;2.67;;
78664;SDS011;67981;51.022;-2.870;2023-03-19T01:57:27;9.68;;;2.90;;
78664;SDS011;67981;51.022;-2.870;2023-03-19T01:59:54;9.05;;;2.60;;
78664;SDS011;67981;51.022;-2.870;2023-03-19T02:02:26;10.10;;;2.45;;
78664;SDS011;67981;51.022;-2.870;2023-03-19T02:05:04;7.28;;;2.08;;
78664;SDS011;67981;51.022;-2.870;2023-03-19T02:07:32;8.20;;;2.50;;
78664;SDS011;67981;51.022;-2.870;2023-03-19T02:09:59;9.73;;;2.15;;
78664;SDS011;67981;51.022;-2.870;2023-03-19T02:12:26;7.22;;;2.22;;
78664;SDS011;67981;51.022;-2.870;2023-03-19T02:14:51;7.75;;;2.17;;
78664;SDS011;67981;51.022;-2.870;2023-03-19T02:17:17;6.68;;;2.28;;
78664;SDS011;67981;51.022;-2.870;2023-03-19T02:22:13;6.43;;;2.67;;
78664;SDS011;67981;51.022;-2.870;2023-03-19T02:25:27;7.43;;;2.60;;
78664;SDS011;67981;51.022;-2.870;2023-03-19T02:27:35;10.75;;;2.65;;
78664;SDS011;67981;51.022;-2.870;2023-03-19T02:30:15;6.68;;;1.95;;
78664;SDS011;67981;51.022;-2.870;2023-03-19T02:32:42;11.38;;;2.67;;
78664;SDS011;67981;51.022;-2.870;2023-03-19T02:35:08;7.40;;;2.35;;
78664;SDS011;67981;51.022;-2.870;2023-03-19T02:37:34;12.18;;;2.88;;
78664;SDS011;67981;51.022;-2.870;2023-03-19T02:40:06;5.05;;;1.95;;
78664;SDS011;67981;51.022;-2.870;2023-03-19T02:42:35;13.85;;;2.65;;
78664;SDS011;67981;51.022;-2.870;2023-03-19T02:45:01;8.50;;;2.08;;
78664;SDS011;67981;51.022;-2.870;2023-03-19T02:47:26;10.82;;;2.63;;
78664;SDS011;67981;51.022;-2.870;2023-03-19T02:49:52;10.18;;;2.72;;
78664;SDS011;67981;51.022;-2.870;2023-03-19T02:52:18;9.65;;;2.15;;
78664;SDS011;67981;51.022;-2.870;2023-03-19T02:54:45;7.75;;;2.33;;
78664;SDS011;67981;51.022;-2.870;2023-03-19T02:57:11;7.38;;;2.33;;
78664;SDS011;67981;51.022;-2.870;2023-03-19T02:59:36;10.52;;;2.15;;
78664;SDS011;67981;51.022;-2.870;2023-03-19T03:02:03;6.50;;;1.92;;
78664;SDS011;67981;51.022;-2.870;2023-03-19T03:04:29;12.25;;;2.53;;
78664;SDS011;67981;51.022;-2.870;2023-03-19T03:06:55;10.65;;;2.38;;
78664;SDS011;67981;51.022;-2.870;2023-03-19T03:09:21;9.25;;;2.00;;
78664;SDS011;67981;51.022;-2.870;2023-03-19T03:11:47;8.73;;;1.95;;
78664;SDS011;67981;51.022;-2.870;2023-03-19T03:14:13;5.80;;;2.13;;
78664;SDS011;67981;51.022;-2.870;2023-03-19T03:16:38;8.32;;;2.30;;
78664;SDS011;67981;51.022;-2.870;2023-03-19T03:19:04;17.15;;;2.92;;
78664;SDS011;67981;51.022;-2.870;2023-03-19T03:21:30;6.70;;;2.45;;
78664;SDS011;67981;51.022;-2.870;2023-03-19T03:23:56;9.98;;;2.53;;
78664;SDS011;67981;51.022;-2.870;2023-03-19T03:26:21;6.93;;;2.08;;
78664;SDS011;67981;51.022;-2.870;2023-03-19T03:28:47;4.18;;;2.17;;
78664;SDS011;67981;51.022;-2.870;2023-03-19T03:31:12;9.35;;;2.65;;
78664;SDS011;67981;51.022;-2.870;2023-03-19T03:33:38;6.78;;;2.25;;
78664;SDS011;67981;51.022;-2.870;2023-03-19T03:36:04;5.80;;;1.90;;
78664;SDS011;67981;51.022;-2.870;2023-03-19T03:38:29;13.40;;;2.83;;
78664;SDS011;67981;51.022;-2.870;2023-03-19T03:40:56;5.70;;;1.85;;
78664;SDS011;67981;51.022;-2.870;2023-03-19T03:43:22;10.05;;;2.15;;
78664;SDS011;67981;51.022;-2.870;2023-03-19T03:45:47;4.03;;;1.85;;
78664;SDS011;67981;51.022;-2.870;2023-03-19T03:48:13;4.55;;;2.22;;
78664;SDS011;67981;51.022;-2.870;2023-03-19T03:50:39;7.68;;;2.20;;
78664;SDS011;67981;51.022;-2.870;2023-03-19T03:53:05;4.53;;;1.77;;
78664;SDS011;67981;51.022;-2.870;2023-03-19T03:55:31;6.63;;;1.67;;
78664;SDS011;67981;51.022;-2.870;2023-03-19T03:57:57;12.80;;;2.58;;
78664;SDS011;67981;51.022;-2.870;2023-03-19T04:00:22;10.93;;;2.85;;
78664;SDS011;67981;51.022;-2.870;2023-03-19T04:02:49;12.32;;;2.75;;
78664;SDS011;67981;51.022;-2.870;2023-03-19T04:05:15;7.43;;;2.55;;
78664;SDS011;67981;51.022;-2.870;2023-03-19T04:07:41;7.95;;;1.92;;
78664;SDS011;67981;51.022;-2.870;2023-03-19T04:10:07;8.57;;;2.40;;
78664;SDS011;67981;51.022;-2.870;2023-03-19T04:12:35;8.32;;;2.78;;
78664;SDS011;67981;51.022;-2.870;2023-03-19T04:15:02;6.97;;;2.97;;
78664;SDS011;67981;51.022;-2.870;2023-03-19T04:17:28;10.52;;;2.35;;
78664;SDS011;67981;51.022;-2.870;2023-03-19T04:19:54;11.48;;;2.58;;
78664;SDS011;67981;51.022;-2.870;2023-03-19T04:22:19;7.03;;;2.55;;
78664;SDS011;67981;51.022;-2.870;2023-03-19T04:24:45;11.35;;;2.65;;
78664;SDS011;67981;51.022;-2.870;2023-03-19T04:27:10;6.47;;;2.10;;
78664;SDS011;67981;51.022;-2.870;2023-03-19T04:29:35;7.05;;;1.98;;
78664;SDS011;67981;51.022;-2.870;2023-03-19T04:32:01;18.57;;;2.87;;
78664;SDS011;67981;51.022;-2.870;2023-03-19T04:34:26;9.45;;;2.78;;
78664;SDS011;67981;51.022;-2.870;2023-03-19T04:36:52;6.68;;;2.30;;
78664;SDS011;67981;51.022;-2.870;2023-03-19T04:39:17;8.40;;;2.03;;
78664;SDS011;67981;51.022;-2.870;2023-03-19T04:41:43;9.40;;;1.88;;
78664;SDS011;67981;51.022;-2.870;2023-03-19T04:44:09;5.82;;;2.40;;
78664;SDS011;67981;51.022;-2.870;2023-03-19T04:46:34;7.68;;;2.33;;
78664;SDS011;67981;51.022;-2.870;2023-03-19T04:49:00;7.30;;;1.73;;
78664;SDS011;67981;51.022;-2.870;2023-03-19T04:51:25;9.23;;;2.15;;
78664;SDS011;67981;51.022;-2.870;2023-03-19T04:53:52;12.63;;;2.58;;
78664;SDS011;67981;51.022;-2.870;2023-03-19T04:56:17;8.55;;;2.33;;
78664;SDS011;67981;51.022;-2.870;2023-03-19T04:58:43;14.18;;;3.65;;
78664;SDS011;67981;51.022;-2.870;2023-03-19T05:01:09;8.32;;;2.33;;
78664;SDS011;67981;51.022;-2.870;2023-03-19T05:03:35;13.15;;;2.38;;
78664;SDS011;67981;51.022;-2.870;2023-03-19T05:06:00;6.25;;;2.20;;
78664;SDS011;67981;51.022;-2.870;2023-03-19T05:08:26;8.38;;;2.10;;
78664;SDS011;67981;51.022;-2.870;2023-03-19T05:10:51;6.47;;;2.20;;
78664;SDS011;67981;51.022;-2.870;2023-03-19T05:13:17;10.30;;;2.30;;
78664;SDS011;67981;51.022;-2.870;2023-03-19T05:15:43;11.88;;;2.17;;
78664;SDS011;67981;51.022;-2.870;2023-03-19T05:18:09;10.32;;;2.10;;
78664;SDS011;67981;51.022;-2.870;2023-03-19T05:20:35;4.15;;;2.42;;
78664;SDS011;67981;51.022;-2.870;2023-03-19T05:23:01;11.23;;;2.65;;
78664;SDS011;67981;51.022;-2.870;2023-03-19T05:25:26;12.95;;;2.97;;
78664;SDS011;67981;51.022;-2.870;2023-03-19T05:27:52;13.98;;;3.03;;
78664;SDS011;67981;51.022;-2.870;2023-03-19T05:30:18;11.45;;;2.35;;
78664;SDS011;67981;51.022;-2.870;2023-03-19T05:32:44;7.18;;;2.10;;
78664;SDS011;67981;51.022;-2.870;2023-03-19T05:35:11;8.05;;;2.22;;
78664;SDS011;67981;51.022;-2.870;2023-03-19T05:37:37;7.00;;;2.03;;
78664;SDS011;67981;51.022;-2.870;2023-03-19T05:40:02;8.85;;;3.03;;
78664;SDS011;67981;51.022;-2.870;2023-03-19T05:42:29;7.88;;;2.50;;
78664;SDS011;67981;51.022;-2.870;2023-03-19T05:44:54;8.35;;;2.88;;
78664;SDS011;67981;51.022;-2.870;2023-03-19T05:47:19;8.30;;;2.97;;
78664;SDS011;67981;51.022;-2.870;2023-03-19T05:49:45;11.60;;;2.42;;
78664;SDS011;67981;51.022;-2.870;2023-03-19T05:52:11;6.95;;;2.47;;
78664;SDS011;67981;51.022;-2.870;2023-03-19T05:54:36;7.53;;;1.92;;
78664;SDS011;67981;51.022;-2.870;2023-03-19T05:57:02;3.65;;;1.75;;
78664;SDS011;67981;51.022;-2.870;2023-03-19T05:59:28;9.27;;;2.50;;
78664;SDS011;67981;51.022;-2.870;2023-03-19T06:01:53;7.20;;;2.45;;
78664;SDS011;67981;51.022;-2.870;2023-03-19T06:04:18;9.73;;;2.03;;
78664;SDS011;67981;51.022;-2.870;2023-03-19T06:06:44;7.53;;;2.13;;
78664;SDS011;67981;51.022;-2.870;2023-03-19T06:09:10;10.23;;;2.92;;
78664;SDS011;67981;51.022;-2.870;2023-03-19T06:11:35;11.65;;;3.03;;
78664;SDS011;67981;51.022;-2.870;2023-03-19T06:14:03;9.27;;;2.33;;
78664;SDS011;67981;51.022;-2.870;2023-03-19T06:16:28;6.53;;;2.30;;
78664;SDS011;67981;51.022;-2.870;2023-03-19T06:18:54;6.43;;;1.80;;
78664;SDS011;67981;51.022;-2.870;2023-03-19T06:21:20;9.80;;;2.40;;
78664;SDS011;67981;51.022;-2.870;2023-03-19T06:23:45;16.95;;;3.63;;
78664;SDS011;67981;51.022;-2.870;2023-03-19T06:26:11;6.75;;;1.80;;
78664;SDS011;67981;51.022;-2.870;2023-03-19T06:28:36;9.35;;;2.90;;
78664;SDS011;67981;51.022;-2.870;2023-03-19T06:31:01;10.68;;;2.60;;
78664;SDS011;67981;51.022;-2.870;2023-03-19T06:33:27;12.68;;;2.78;;
78664;SDS011;67981;51.022;-2.870;2023-03-19T06:38:21;5.47;;;2.38;;
78664;SDS011;67981;51.022;-2.870;2023-03-19T06:40:46;9.20;;;2.10;;
78664;SDS011;67981;51.022;-2.870;2023-03-19T06:43:12;7.47;;;3.03;;
78664;SDS011;67981;51.022;-2.870;2023-03-19T06:45:38;6.78;;;2.25;;
78664;SDS011;67981;51.022;-2.870;2023-03-19T06:48:03;5.28;;;2.67;;
78664;SDS011;67981;51.022;-2.870;2023-03-19T06:50:29;14.45;;;2.38;;
78664;SDS011;67981;51.022;-2.870;2023-03-19T06:52:55;9.00;;;3.00;;
78664;SDS011;67981;51.022;-2.870;2023-03-19T06:55:20;7.72;;;2.63;;
78664;SDS011;67981;51.022;-2.870;2023-03-19T06:57:49;11.68;;;3.83;;
78664;SDS011;67981;51.022;-2.870;2023-03-19T07:00:15;7.28;;;2.45;;
78664;SDS011;67981;51.022;-2.870;2023-03-19T07:02:42;7.43;;;2.75;;
78664;SDS011;67981;51.022;-2.870;2023-03-19T07:05:08;9.55;;;2.35;;
78664;SDS011;67981;51.022;-2.870;2023-03-19T07:07:34;6.68;;;2.15;;
78664;SDS011;67981;51.022;-2.870;2023-03-19T07:10:00;10.52;;;2.47;;
78664;SDS011;67981;51.022;-2.870;2023-03-19T07:12:25;12.18;;;3.05;;
78664;SDS011;67981;51.022;-2.870;2023-03-19T07:14:52;7.95;;;2.80;;
78664;SDS011;67981;51.022;-2.870;2023-03-19T07:17:20;11.93;;;2.97;;
78664;SDS011;67981;51.022;-2.870;2023-03-19T07:19:46;4.97;;;2.30;;
78664;SDS011;67981;51.022;-2.870;2023-03-19T07:22:11;4.33;;;2.00;;
78664;SDS011;67981;51.022;-2.870;2023-03-19T07:24:36;10.13;;;3.33;;
78664;SDS011;67981;51.022;-2.870;2023-03-19T07:27:02;12.63;;;3.37;;
78664;SDS011;67981;51.022;-2.870;2023-03-19T07:29:27;6.18;;;2.33;;
78664;SDS011;67981;51.022;-2.870;2023-03-19T07:31:53;9.13;;;2.33;;
78664;SDS011;67981;51.022;-2.870;2023-03-19T07:34:18;10.88;;;2.67;;
78664;SDS011;67981;51.022;-2.870;2023-03-19T07:36:43;6.82;;;2.38;;
78664;SDS011;67981;51.022;-2.870;2023-03-19T07:39:09;8.53;;;2.33;;
78664;SDS011;67981;51.022;-2.870;2023-03-19T07:41:35;13.82;;;6.30;;
78664;SDS011;67981;51.022;-2.870;2023-03-19T07:44:00;10.52;;;2.58;;
78664;SDS011;67981;51.022;-2.870;2023-03-19T07:46:26;7.20;;;2.83;;
78664;SDS011;67981;51.022;-2.870;2023-03-19T07:48:52;7.18;;;2.78;;
78664;SDS011;67981;51.022;-2.870;2023-03-19T07:51:17;8.43;;;2.80;;
78664;SDS011;67981;51.022;-2.870;2023-03-19T07:53:43;13.53;;;4.00;;
78664;SDS011;67981;51.022;-2.870;2023-03-19T07:56:08;9.43;;;2.63;;
78664;SDS011;67981;51.022;-2.870;2023-03-19T07:58:34;7.55;;;2.50;;
78664;SDS011;67981;51.022;-2.870;2023-03-19T08:00:59;8.70;;;3.30;;
78664;SDS011;67981;51.022;-2.870;2023-03-19T08:03:25;11.02;;;2.72;;
78664;SDS011;67981;51.022;-2.870;2023-03-19T08:05:50;11.90;;;3.13;;
78664;SDS011;67981;51.022;-2.870;2023-03-19T08:08:16;7.88;;;3.13;;
78664;SDS011;67981;51.022;-2.870;2023-03-19T08:10:42;11.40;;;3.10;;
78664;SDS011;67981;51.022;-2.870;2023-03-19T08:13:07;12.38;;;2.65;;
78664;SDS011;67981;51.022;-2.870;2023-03-19T08:15:33;14.30;;;2.93;;
78664;SDS011;67981;51.022;-2.870;2023-03-19T08:17:59;12.27;;;4.05;;
78664;SDS011;67981;51.022;-2.870;2023-03-19T08:20:25;10.88;;;2.28;;
78664;SDS011;67981;51.022;-2.870;2023-03-19T08:22:51;16.80;;;3.13;;
78664;SDS011;67981;51.022;-2.870;2023-03-19T08:25:16;21.65;;;3.85;;
78664;SDS011;67981;51.022;-2.870;2023-03-19T08:27:42;13.25;;;3.58;;
78664;SDS011;67981;51.022;-2.870;2023-03-19T08:30:07;12.87;;;4.00;;
78664;SDS011;67981;51.022;-2.870;2023-03-19T08:32:34;7.75;;;2.60;;
78664;SDS011;67981;51.022;-2.870;2023-03-19T08:35:01;12.07;;;2.95;;
78664;SDS011;67981;51.022;-2.870;2023-03-19T08:37:27;8.05;;;2.67;;
78664;SDS011;67981;51.022;-2.870;2023-03-19T08:39:53;7.65;;;2.30;;
78664;SDS011;67981;51.022;-2.870;2023-03-19T08:42:18;5.40;;;2.13;;
78664;SDS011;67981;51.022;-2.870;2023-03-19T08:44:45;7.03;;;2.00;;
78664;SDS011;67981;51.022;-2.870;2023-03-19T08:47:10;8.05;;;2.42;;
78664;SDS011;67981;51.022;-2.870;2023-03-19T08:49:36;12.07;;;2.17;;
78664;SDS011;67981;51.022;-2.870;2023-03-19T08:52:02;14.98;;;2.22;;
78664;SDS011;67981;51.022;-2.870;2023-03-19T08:54:28;8.35;;;3.10;;
78664;SDS011;67981;51.022;-2.870;2023-03-19T08:56:53;6.07;;;2.05;;
78664;SDS011;67981;51.022;-2.870;2023-03-19T08:59:18;7.97;;;1.93;;
78664;SDS011;67981;51.022;-2.870;2023-03-19T09:01:44;7.87;;;2.10;;
78664;SDS011;67981;51.022;-2.870;2023-03-19T09:04:09;5.90;;;2.08;;
78664;SDS011;67981;51.022;-2.870;2023-03-19T09:06:35;12.93;;;2.17;;
78664;SDS011;67981;51.022;-2.870;2023-03-19T09:09:00;8.55;;;2.42;;
78664;SDS011;67981;51.022;-2.870;2023-03-19T09:11:25;5.97;;;1.40;;
78664;SDS011;67981;51.022;-2.870;2023-03-19T09:13:51;7.93;;;2.00;;
78664;SDS011;67981;51.022;-2.870;2023-03-19T09:16:16;8.57;;;1.92;;
78664;SDS011;67981;51.022;-2.870;2023-03-19T09:18:42;11.30;;;3.20;;
78664;SDS011;67981;51.022;-2.870;2023-03-19T09:21:08;9.68;;;2.38;;
78664;SDS011;67981;51.022;-2.870;2023-03-19T09:23:33;5.93;;;1.65;;
78664;SDS011;67981;51.022;-2.870;2023-03-19T09:25:59;4.60;;;1.42;;
78664;SDS011;67981;51.022;-2.870;2023-03-19T09:28:24;3.90;;;1.15;;
78664;SDS011;67981;51.022;-2.870;2023-03-19T09:30:50;5.70;;;1.83;;
78664;SDS011;67981;51.022;-2.870;2023-03-19T09:33:16;10.10;;;2.15;;
78664;SDS011;67981;51.022;-2.870;2023-03-19T09:35:47;6.45;;;2.17;;
78664;SDS011;67981;51.022;-2.870;2023-03-19T09:38:13;7.45;;;2.03;;
78664;SDS011;67981;51.022;-2.870;2023-03-19T09:40:43;9.17;;;2.83;;
78664;SDS011;67981;51.022;-2.870;2023-03-19T09:45:51;13.88;;;1.60;;
78664;SDS011;67981;51.022;-2.870;2023-03-19T09:51:18;3.47;;;1.25;;
78664;SDS011;67981;51.022;-2.870;2023-03-19T09:56:21;5.18;;;1.48;;
78664;SDS011;67981;51.022;-2.870;2023-03-19T09:58:48;4.47;;;1.40;;
78664;SDS011;67981;51.022;-2.870;2023-03-19T10:01:22;7.95;;;1.20;;
78664;SDS011;67981;51.022;-2.870;2023-03-19T10:07:16;7.72;;;1.67;;
78664;SDS011;67981;51.022;-2.870;2023-03-19T10:12:52;5.47;;;1.52;;
78664;SDS011;67981;51.022;-2.870;2023-03-19T10:20:29;2.20;;;1.10;;
78664;SDS011;67981;51.022;-2.870;2023-03-19T10:25:56;6.30;;;1.50;;
78664;SDS011;67981;51.022;-2.870;2023-03-19T10:28:23;3.40;;;1.10;;
78664;SDS011;67981;51.022;-2.870;2023-03-19T10:33:40;2.15;;;0.93;;
78664;SDS011;67981;51.022;-2.870;2023-03-19T10:36:16;5.00;;;1.10;;
78664;SDS011;67981;51.022;-2.870;2023-03-19T10:38:48;8.93;;;1.75;;
78664;SDS011;67981;51.022;-2.870;2023-03-19T10:44:20;2.83;;;1.08;;
78664;SDS011;67981;51.022;-2.870;2023-03-19T10:46:52;6.65;;;2.33;;
78664;SDS011;67981;51.022;-2.870;2023-03-19T10:51:46;4.07;;;1.10;;
78664;SDS011;67981;51.022;-2.870;2023-03-19T10:54:23;3.88;;;1.10;;
78664;SDS011;67981;51.022;-2.870;2023-03-19T10:56:54;4.70;;;1.20;;
78664;SDS011;67981;51.022;-2.870;2023-03-19T11:01:57;3.63;;;1.13;;
78664;SDS011;67981;51.022;-2.870;2023-03-19T11:04:25;3.35;;;1.92;;
78664;SDS011;67981;51.022;-2.870;2023-03-19T11:07:00;6.22;;;1.17;;
78664;SDS011;67981;51.022;-2.870;2023-03-19T11:12:13;3.25;;;1.00;;
78664;SDS011;67981;51.022;-2.870;2023-03-19T11:14:41;3.88;;;0.90;;
78664;SDS011;67981;51.022;-2.870;2023-03-19T11:20:30;5.50;;;1.08;;
78664;SDS011;67981;51.022;-2.870;2023-03-19T11:22:57;5.15;;;1.10;;
78664;SDS011;67981;51.022;-2.870;2023-03-19T11:25:38;2.15;;;0.90;;
78664;SDS011;67981;51.022;-2.870;2023-03-19T11:28:15;3.70;;;1.10;;
78664;SDS011;67981;51.022;-2.870;2023-03-19T11:33:35;6.68;;;1.05;;
78664;SDS011;67981;51.022;-2.870;2023-03-19T11:36:12;1.38;;;0.50;;
78664;SDS011;67981;51.022;-2.870;2023-03-19T11:41:44;2.20;;;0.63;;
78664;SDS011;67981;51.022;-2.870;2023-03-19T11:44:32;5.00;;;0.90;;
78664;SDS011;67981;51.022;-2.870;2023-03-19T11:47:23;3.90;;;0.75;;
78664;SDS011;67981;51.022;-2.870;2023-03-19T11:49:58;2.25;;;1.10;;
78664;SDS011;67981;51.022;-2.870;2023-03-19T11:55:24;5.82;;;1.35;;
78664;SDS011;67981;51.022;-2.870;2023-03-19T12:08:09;3.90;;;0.68;;
78664;SDS011;67981;51.022;-2.870;2023-03-19T12:21:09;1.80;;;0.85;;
78664;SDS011;67981;51.022;-2.870;2023-03-19T12:23:55;4.85;;;1.30;;
78664;SDS011;67981;51.022;-2.870;2023-03-19T12:29:56;2.47;;;0.90;;
78664;SDS011;67981;51.022;-2.870;2023-03-19T12:34:56;3.63;;;0.60;;
78664;SDS011;67981;51.022;-2.870;2023-03-19T12:37:41;4.72;;;1.02;;
78664;SDS011;67981;51.022;-2.870;2023-03-19T12:43:35;3.85;;;0.75;;
78664;SDS011;67981;51.022;-2.870;2023-03-19T12:46:12;2.53;;;0.68;;
78664;SDS011;67981;51.022;-2.870;2023-03-19T12:48:47;2.08;;;0.90;;
78664;SDS011;67981;51.022;-2.870;2023-03-19T12:51:18;3.35;;;0.73;;
78664;SDS011;67981;51.022;-2.870;2023-03-19T12:56:36;3.17;;;0.90;;
78664;SDS011;67981;51.022;-2.870;2023-03-19T12:59:10;2.45;;;1.27;;
78664;SDS011;67981;51.022;-2.870;2023-03-19T13:01:39;4.97;;;1.00;;
78664;SDS011;67981;51.022;-2.870;2023-03-19T13:04:15;3.80;;;0.80;;
78664;SDS011;67981;51.022;-2.870;2023-03-19T13:10:16;3.15;;;1.08;;
78664;SDS011;67981;51.022;-2.870;2023-03-19T13:12:41;3.97;;;1.08;;
78664;SDS011;67981;51.022;-2.870;2023-03-19T13:15:09;3.97;;;0.90;;
78664;SDS011;67981;51.022;-2.870;2023-03-19T13:23:22;4.55;;;1.17;;
78664;SDS011;67981;51.022;-2.870;2023-03-19T13:25:51;4.60;;;1.40;;
78664;SDS011;67981;51.022;-2.870;2023-03-19T13:28:31;3.85;;;1.00;;
78664;SDS011;67981;51.022;-2.870;2023-03-19T13:33:52;4.80;;;1.42;;
78664;SDS011;67981;51.022;-2.870;2023-03-19T13:38:52;3.22;;;1.30;;
78664;SDS011;67981;51.022;-2.870;2023-03-19T13:43:59;4.82;;;1.23;;
78664;SDS011;67981;51.022;-2.870;2023-03-19T13:46:44;10.40;;;2.80;;
78664;SDS011;67981;51.022;-2.870;2023-03-19T13:54:37;6.18;;;1.33;;
78664;SDS011;67981;51.022;-2.870;2023-03-19T13:59:38;7.47;;;1.33;;
78664;SDS011;67981;51.022;-2.870;2023-03-19T14:04:52;7.07;;;1.45;;
78664;SDS011;67981;51.022;-2.870;2023-03-19T14:07:25;5.35;;;1.40;;
78664;SDS011;67981;51.022;-2.870;2023-03-19T14:12:34;5.75;;;1.00;;
78664;SDS011;67981;51.022;-2.870;2023-03-19T14:15:03;8.23;;;1.33;;
78664;SDS011;67981;51.022;-2.870;2023-03-19T14:18:02;4.22;;;1.45;;
78664;SDS011;67981;51.022;-2.870;2023-03-19T14:20:42;3.72;;;1.20;;
78664;SDS011;67981;51.022;-2.870;2023-03-19T14:25:55;5.20;;;1.10;;
78664;SDS011;67981;51.022;-2.870;2023-03-19T14:28:23;5.45;;;1.35;;
78664;SDS011;67981;51.022;-2.870;2023-03-19T14:30:56;3.63;;;1.33;;
78664;SDS011;67981;51.022;-2.870;2023-03-19T14:33:24;5.70;;;1.73;;
78664;SDS011;67981;51.022;-2.870;2023-03-19T14:35:55;5.75;;;1.52;;
78664;SDS011;67981;51.022;-2.870;2023-03-19T14:38:31;5.97;;;1.65;;
78664;SDS011;67981;51.022;-2.870;2023-03-19T14:41:01;5.18;;;1.40;;
78664;SDS011;67981;51.022;-2.870;2023-03-19T14:46:18;4.78;;;1.00;;
78664;SDS011;67981;51.022;-2.870;2023-03-19T14:52:01;5.55;;;1.40;;
78664;SDS011;67981;51.022;-2.870;2023-03-19T14:54:40;3.58;;;1.33;;
78664;SDS011;67981;51.022;-2.870;2023-03-19T14:57:15;5.82;;;1.50;;
78664;SDS011;67981;51.022;-2.870;2023-03-19T14:59:46;2.65;;;1.15;;
78664;SDS011;67981;51.022;-2.870;2023-03-19T15:04:58;4.68;;;2.55;;
78664;SDS011;67981;51.022;-2.870;2023-03-19T15:07:31;8.20;;;1.63;;
78664;SDS011;67981;51.022;-2.870;2023-03-19T15:10:02;4.50;;;1.20;;
78664;SDS011;67981;51.022;-2.870;2023-03-19T15:17:50;8.88;;;1.48;;
78664;SDS011;67981;51.022;-2.870;2023-03-19T15:20:23;4.63;;;1.50;;
78664;SDS011;67981;51.022;-2.870;2023-03-19T15:22:53;5.45;;;1.63;;
78664;SDS011;67981;51.022;-2.870;2023-03-19T15:25:20;5.90;;;1.63;;
78664;SDS011;67981;51.022;-2.870;2023-03-19T15:27:45;2.20;;;1.13;;
78664;SDS011;67981;51.022;-2.870;2023-03-19T15:30:32;6.63;;;1.27;;
78664;SDS011;67981;51.022;-2.870;2023-03-19T15:32:57;5.50;;;1.50;;
78664;SDS011;67981;51.022;-2.870;2023-03-19T15:35:25;5.65;;;1.55;;
78664;SDS011;67981;51.022;-2.870;2023-03-19T15:37:55;7.15;;;1.50;;
78664;SDS011;67981;51.022;-2.870;2023-03-19T15:40:25;11.52;;;1.60;;
78664;SDS011;67981;51.022;-2.870;2023-03-19T15:42:54;9.43;;;1.83;;
78664;SDS011;67981;51.022;-2.870;2023-03-19T15:45:22;6.93;;;2.30;;
78664;SDS011;67981;51.022;-2.870;2023-03-19T15:50:36;11.38;;;3.72;;
78664;SDS011;67981;51.022;-2.870;2023-03-19T15:53:11;7.32;;;1.95;;
78664;SDS011;67981;51.022;-2.870;2023-03-19T15:55:43;7.78;;;2.22;;
78664;SDS011;67981;51.022;-2.870;2023-03-19T15:58:17;6.57;;;1.98;;
78664;SDS011;67981;51.022;-2.870;2023-03-19T16:00:46;7.93;;;2.55;;
78664;SDS011;67981;51.022;-2.870;2023-03-19T16:03:15;6.75;;;2.10;;
78664;SDS011;67981;51.022;-2.870;2023-03-19T16:05:42;5.53;;;2.28;;
78664;SDS011;67981;51.022;-2.870;2023-03-19T16:08:16;6.93;;;3.03;;
78664;SDS011;67981;51.022;-2.870;2023-03-19T16:10:45;8.20;;;2.17;;
78664;SDS011;67981;51.022;-2.870;2023-03-19T16:13:19;5.43;;;1.95;;
78664;SDS011;67981;51.022;-2.870;2023-03-19T16:15:52;6.38;;;1.77;;
78664;SDS011;67981;51.022;-2.870;2023-03-19T16:20:47;8.15;;;2.08;;
78664;SDS011;67981;51.022;-2.870;2023-03-19T16:23:30;5.88;;;1.73;;
78664;SDS011;67981;51.022;-2.870;2023-03-19T16:26:02;11.63;;;3.40;;
78664;SDS011;67981;51.022;-2.870;2023-03-19T16:29:36;8.65;;;3.17;;
78664;SDS011;67981;51.022;-2.870;2023-03-19T16:31:40;6.80;;;2.38;;
78664;SDS011;67981;51.022;-2.870;2023-03-19T16:34:50;5.05;;;1.77;;
78664;SDS011;67981;51.022;-2.870;2023-03-19T16:39:55;9.45;;;2.30;;
78664;SDS011;67981;51.022;-2.870;2023-03-19T16:44:50;16.42;;;2.30;;
78664;SDS011;67981;51.022;-2.870;2023-03-19T16:47:15;9.18;;;1.70;;
78664;SDS011;67981;51.022;-2.870;2023-03-19T16:49:41;7.80;;;2.00;;
78664;SDS011;67981;51.022;-2.870;2023-03-19T16:52:09;14.00;;;3.03;;
78664;SDS011;67981;51.022;-2.870;2023-03-19T16:54:40;9.40;;;2.03;;
78664;SDS011;67981;51.022;-2.870;2023-03-19T16:57:07;9.82;;;2.42;;
78664;SDS011;67981;51.022;-2.870;2023-03-19T16:59:35;11.95;;;2.22;;
78664;SDS011;67981;51.022;-2.870;2023-03-19T17:02:00;7.07;;;2.08;;
78664;SDS011;67981;51.022;-2.870;2023-03-19T17:04:26;5.45;;;2.33;;